sensor_id;sensor_type;location;lat;lon;timestamp;P1;durP1;ratioP1;P2;durP2;ratioP2
3995;SDS011;2012;49.794;9.722;2023-04-25T00:01:51;11.80;;;5.67;;
3995;SDS011;2012;49.794;9.722;2023-04-25T00:04:18;17.10;;;7.90;;
3995;SDS011;2012;49.794;9.722;2023-04-25T00:06:45;5.47;;;4.43;;
3995;SDS011;2012;49.794;9.722;2023-04-25T00:09:12;10.93;;;6.73;;
3995;SDS011;2012;49.794;9.722;2023-04-25T00:11:39;10.97;;;5.00;;
3995;SDS011;2012;49.794;9.722;2023-04-25T00:14:06;5.47;;;4.70;;
3995;SDS011;2012;49.794;9.722;2023-04-25T00:16:33;6.20;;;4.17;;
3995;SDS011;2012;49.794;9.722;2023-04-25T00:19:02;4.70;;;4.13;;
3995;SDS011;2012;49.794;9.722;2023-04-25T00:21:29;4.43;;;3.80;;
3995;SDS011;2012;49.794;9.722;2023-04-25T00:23:58;5.17;;;4.63;;
3995;SDS011;2012;49.794;9.722;2023-04-25T00:26:25;4.57;;;4.10;;
3995;SDS011;2012;49.794;9.722;2023-04-25T00:28:53;4.77;;;4.37;;
3995;SDS011;2012;49.794;9.722;2023-04-25T00:31:19;4.13;;;3.70;;
3995;SDS011;2012;49.794;9.722;2023-04-25T00:33:47;5.07;;;4.33;;
3995;SDS011;2012;49.794;9.722;2023-04-25T00:36:14;4.30;;;3.90;;
3995;SDS011;2012;49.794;9.722;2023-04-25T00:38:41;5.60;;;4.17;;
3995;SDS011;2012;49.794;9.722;2023-04-25T00:41:08;4.73;;;4.33;;
3995;SDS011;2012;49.794;9.722;2023-04-25T00:43:36;5.00;;;4.27;;
3995;SDS011;2012;49.794;9.722;2023-04-25T00:46:03;4.70;;;4.30;;
3995;SDS011;2012;49.794;9.722;2023-04-25T00:48:30;4.60;;;4.20;;
3995;SDS011;2012;49.794;9.722;2023-04-25T00:50:57;7.30;;;5.20;;
3995;SDS011;2012;49.794;9.722;2023-04-25T00:53:25;4.57;;;4.20;;
3995;SDS011;2012;49.794;9.722;2023-04-25T00:55:54;4.67;;;4.27;;
3995;SDS011;2012;49.794;9.722;2023-04-25T00:58:21;5.93;;;4.30;;
3995;SDS011;2012;49.794;9.722;2023-04-25T01:00:49;4.80;;;4.30;;
3995;SDS011;2012;49.794;9.722;2023-04-25T01:03:18;4.60;;;4.20;;
3995;SDS011;2012;49.794;9.722;2023-04-25T01:05:49;7.97;;;4.20;;
3995;SDS011;2012;49.794;9.722;2023-04-25T01:08:17;5.50;;;3.73;;
3995;SDS011;2012;49.794;9.722;2023-04-25T01:10:44;3.80;;;3.50;;
3995;SDS011;2012;49.794;9.722;2023-04-25T01:13:10;4.00;;;3.70;;
3995;SDS011;2012;49.794;9.722;2023-04-25T01:15:37;4.20;;;3.30;;
3995;SDS011;2012;49.794;9.722;2023-04-25T01:18:05;2.93;;;2.73;;
3995;SDS011;2012;49.794;9.722;2023-04-25T01:20:33;3.97;;;3.03;;
3995;SDS011;2012;49.794;9.722;2023-04-25T01:23:00;2.90;;;2.70;;
3995;SDS011;2012;49.794;9.722;2023-04-25T01:25:30;3.10;;;2.80;;
3995;SDS011;2012;49.794;9.722;2023-04-25T01:27:57;2.97;;;2.77;;
3995;SDS011;2012;49.794;9.722;2023-04-25T01:30:28;3.10;;;2.90;;
3995;SDS011;2012;49.794;9.722;2023-04-25T01:32:56;3.93;;;3.57;;
3995;SDS011;2012;49.794;9.722;2023-04-25T01:35:24;3.50;;;3.20;;
3995;SDS011;2012;49.794;9.722;2023-04-25T01:37:54;3.20;;;2.97;;
3995;SDS011;2012;49.794;9.722;2023-04-25T01:40:21;3.30;;;2.90;;
3995;SDS011;2012;49.794;9.722;2023-04-25T01:42:51;2.90;;;2.70;;
3995;SDS011;2012;49.794;9.722;2023-04-25T01:45:19;3.30;;;2.90;;
3995;SDS011;2012;49.794;9.722;2023-04-25T01:47:47;2.93;;;2.73;;
3995;SDS011;2012;49.794;9.722;2023-04-25T01:50:16;2.77;;;2.57;;
3995;SDS011;2012;49.794;9.722;2023-04-25T01:52:44;3.03;;;2.83;;
3995;SDS011;2012;49.794;9.722;2023-04-25T01:55:12;2.37;;;2.17;;
3995;SDS011;2012;49.794;9.722;2023-04-25T01:57:48;2.50;;;2.30;;
3995;SDS011;2012;49.794;9.722;2023-04-25T02:00:16;2.97;;;2.70;;
3995;SDS011;2012;49.794;9.722;2023-04-25T02:02:43;1.83;;;1.73;;
3995;SDS011;2012;49.794;9.722;2023-04-25T02:05:21;5.33;;;3.37;;
3995;SDS011;2012;49.794;9.722;2023-04-25T02:07:47;2.10;;;1.90;;
3995;SDS011;2012;49.794;9.722;2023-04-25T02:10:14;1.53;;;1.43;;
3995;SDS011;2012;49.794;9.722;2023-04-25T02:12:53;1.97;;;1.87;;
3995;SDS011;2012;49.794;9.722;2023-04-25T02:15:28;2.00;;;1.90;;
3995;SDS011;2012;49.794;9.722;2023-04-25T02:18:01;1.90;;;1.80;;
3995;SDS011;2012;49.794;9.722;2023-04-25T02:20:28;3.17;;;2.07;;
3995;SDS011;2012;49.794;9.722;2023-04-25T02:22:56;4.23;;;2.10;;
3995;SDS011;2012;49.794;9.722;2023-04-25T02:25:23;2.07;;;1.97;;
3995;SDS011;2012;49.794;9.722;2023-04-25T02:27:50;2.27;;;1.90;;
3995;SDS011;2012;49.794;9.722;2023-04-25T02:30:17;3.97;;;2.20;;
3995;SDS011;2012;49.794;9.722;2023-04-25T02:32:44;5.93;;;1.93;;
3995;SDS011;2012;49.794;9.722;2023-04-25T02:35:11;2.07;;;1.83;;
3995;SDS011;2012;49.794;9.722;2023-04-25T02:37:38;2.57;;;2.37;;
3995;SDS011;2012;49.794;9.722;2023-04-25T02:40:06;2.50;;;2.30;;
3995;SDS011;2012;49.794;9.722;2023-04-25T02:42:33;2.43;;;2.23;;
3995;SDS011;2012;49.794;9.722;2023-04-25T02:45:00;3.00;;;2.57;;
3995;SDS011;2012;49.794;9.722;2023-04-25T02:47:28;3.37;;;2.43;;
3995;SDS011;2012;49.794;9.722;2023-04-25T02:49:55;2.10;;;2.00;;
3995;SDS011;2012;49.794;9.722;2023-04-25T02:52:22;2.77;;;2.57;;
3995;SDS011;2012;49.794;9.722;2023-04-25T02:54:56;7.20;;;1.80;;
3995;SDS011;2012;49.794;9.722;2023-04-25T02:57:24;2.50;;;2.30;;
3995;SDS011;2012;49.794;9.722;2023-04-25T02:59:52;2.70;;;2.60;;
3995;SDS011;2012;49.794;9.722;2023-04-25T03:02:18;2.70;;;2.50;;
3995;SDS011;2012;49.794;9.722;2023-04-25T03:04:45;3.20;;;2.90;;
3995;SDS011;2012;49.794;9.722;2023-04-25T03:07:12;2.63;;;2.40;;
3995;SDS011;2012;49.794;9.722;2023-04-25T03:09:39;2.60;;;2.50;;
3995;SDS011;2012;49.794;9.722;2023-04-25T03:12:07;2.43;;;2.27;;
3995;SDS011;2012;49.794;9.722;2023-04-25T03:14:34;3.63;;;2.33;;
3995;SDS011;2012;49.794;9.722;2023-04-25T03:17:01;2.20;;;2.10;;
3995;SDS011;2012;49.794;9.722;2023-04-25T03:19:28;2.90;;;2.50;;
3995;SDS011;2012;49.794;9.722;2023-04-25T03:21:55;4.07;;;2.50;;
3995;SDS011;2012;49.794;9.722;2023-04-25T03:24:22;3.67;;;3.33;;
3995;SDS011;2012;49.794;9.722;2023-04-25T03:26:48;2.90;;;2.60;;
3995;SDS011;2012;49.794;9.722;2023-04-25T03:29:15;2.60;;;2.40;;
3995;SDS011;2012;49.794;9.722;2023-04-25T03:31:43;2.90;;;2.60;;
3995;SDS011;2012;49.794;9.722;2023-04-25T03:34:10;2.90;;;2.70;;
3995;SDS011;2012;49.794;9.722;2023-04-25T03:36:37;3.17;;;2.53;;
3995;SDS011;2012;49.794;9.722;2023-04-25T03:39:06;2.67;;;2.47;;
3995;SDS011;2012;49.794;9.722;2023-04-25T03:41:33;3.10;;;2.90;;
3995;SDS011;2012;49.794;9.722;2023-04-25T03:44:04;4.27;;;3.27;;
3995;SDS011;2012;49.794;9.722;2023-04-25T03:46:31;3.07;;;2.80;;
3995;SDS011;2012;49.794;9.722;2023-04-25T03:48:58;3.53;;;3.23;;
3995;SDS011;2012;49.794;9.722;2023-04-25T03:51:39;4.20;;;3.47;;
3995;SDS011;2012;49.794;9.722;2023-04-25T03:54:06;3.30;;;3.00;;
3995;SDS011;2012;49.794;9.722;2023-04-25T03:56:39;3.63;;;3.17;;
3995;SDS011;2012;49.794;9.722;2023-04-25T03:59:15;6.27;;;3.47;;
3995;SDS011;2012;49.794;9.722;2023-04-25T04:01:43;5.23;;;3.27;;
3995;SDS011;2012;49.794;9.722;2023-04-25T04:04:10;4.00;;;2.83;;
3995;SDS011;2012;49.794;9.722;2023-04-25T04:06:37;3.60;;;3.30;;
3995;SDS011;2012;49.794;9.722;2023-04-25T04:09:24;17.03;;;3.37;;
3995;SDS011;2012;49.794;9.722;2023-04-25T04:11:52;3.80;;;3.03;;
3995;SDS011;2012;49.794;9.722;2023-04-25T04:14:19;3.67;;;3.37;;
3995;SDS011;2012;49.794;9.722;2023-04-25T04:16:48;3.90;;;3.60;;
3995;SDS011;2012;49.794;9.722;2023-04-25T04:19:17;4.20;;;3.83;;
3995;SDS011;2012;49.794;9.722;2023-04-25T04:21:50;4.40;;;4.10;;
3995;SDS011;2012;49.794;9.722;2023-04-25T04:24:17;4.03;;;3.70;;
3995;SDS011;2012;49.794;9.722;2023-04-25T04:26:55;5.83;;;3.93;;
3995;SDS011;2012;49.794;9.722;2023-04-25T04:29:34;5.73;;;4.80;;
3995;SDS011;2012;49.794;9.722;2023-04-25T04:32:22;6.00;;;4.80;;
3995;SDS011;2012;49.794;9.722;2023-04-25T04:34:50;4.37;;;3.93;;
3995;SDS011;2012;49.794;9.722;2023-04-25T04:37:18;5.10;;;4.60;;
3995;SDS011;2012;49.794;9.722;2023-04-25T04:39:44;5.80;;;4.87;;
3995;SDS011;2012;49.794;9.722;2023-04-25T04:42:32;5.43;;;4.93;;
3995;SDS011;2012;49.794;9.722;2023-04-25T04:45:11;5.30;;;4.80;;
3995;SDS011;2012;49.794;9.722;2023-04-25T04:47:44;5.00;;;4.50;;
3995;SDS011;2012;49.794;9.722;2023-04-25T04:50:30;5.93;;;5.17;;
3995;SDS011;2012;49.794;9.722;2023-04-25T04:53:18;5.80;;;4.90;;
3995;SDS011;2012;49.794;9.722;2023-04-25T04:56:04;7.33;;;5.30;;
3995;SDS011;2012;49.794;9.722;2023-04-25T04:58:53;5.77;;;5.20;;
3995;SDS011;2012;49.794;9.722;2023-04-25T05:01:55;6.60;;;5.47;;
3995;SDS011;2012;49.794;9.722;2023-04-25T05:04:46;6.47;;;5.80;;
3995;SDS011;2012;49.794;9.722;2023-04-25T05:07:48;5.53;;;5.07;;
3995;SDS011;2012;49.794;9.722;2023-04-25T05:10:33;7.27;;;5.63;;
3995;SDS011;2012;49.794;9.722;2023-04-25T05:13:18;8.60;;;6.03;;
3995;SDS011;2012;49.794;9.722;2023-04-25T05:15:58;7.73;;;6.90;;
3995;SDS011;2012;49.794;9.722;2023-04-25T05:18:47;7.37;;;6.10;;
3995;SDS011;2012;49.794;9.722;2023-04-25T05:21:32;9.50;;;7.10;;
3995;SDS011;2012;49.794;9.722;2023-04-25T05:24:17;6.90;;;6.30;;
3995;SDS011;2012;49.794;9.722;2023-04-25T05:26:59;13.00;;;6.80;;
3995;SDS011;2012;49.794;9.722;2023-04-25T05:29:44;10.60;;;8.83;;
3995;SDS011;2012;49.794;9.722;2023-04-25T05:32:34;12.10;;;9.63;;
3995;SDS011;2012;49.794;9.722;2023-04-25T05:35:01;8.13;;;7.27;;
3995;SDS011;2012;49.794;9.722;2023-04-25T05:37:39;10.57;;;7.03;;
3995;SDS011;2012;49.794;9.722;2023-04-25T05:40:10;11.40;;;7.67;;
3995;SDS011;2012;49.794;9.722;2023-04-25T05:43:04;8.83;;;7.23;;
3995;SDS011;2012;49.794;9.722;2023-04-25T05:45:45;18.53;;;8.57;;
3995;SDS011;2012;49.794;9.722;2023-04-25T05:48:28;18.00;;;8.23;;
3995;SDS011;2012;49.794;9.722;2023-04-25T05:51:00;10.07;;;7.33;;
3995;SDS011;2012;49.794;9.722;2023-04-25T05:53:56;11.53;;;7.40;;
3995;SDS011;2012;49.794;9.722;2023-04-25T05:56:23;8.23;;;7.43;;
3995;SDS011;2012;49.794;9.722;2023-04-25T05:58:51;12.80;;;8.10;;
3995;SDS011;2012;49.794;9.722;2023-04-25T06:01:19;17.30;;;7.30;;
3995;SDS011;2012;49.794;9.722;2023-04-25T06:03:46;9.57;;;7.33;;
3995;SDS011;2012;49.794;9.722;2023-04-25T06:06:16;11.13;;;8.33;;
3995;SDS011;2012;49.794;9.722;2023-04-25T06:08:43;13.47;;;8.40;;
3995;SDS011;2012;49.794;9.722;2023-04-25T06:11:10;11.63;;;8.33;;
3995;SDS011;2012;49.794;9.722;2023-04-25T06:13:37;10.03;;;8.30;;
3995;SDS011;2012;49.794;9.722;2023-04-25T06:16:05;10.60;;;7.90;;
3995;SDS011;2012;49.794;9.722;2023-04-25T06:18:32;12.33;;;7.70;;
3995;SDS011;2012;49.794;9.722;2023-04-25T06:20:59;12.17;;;7.70;;
3995;SDS011;2012;49.794;9.722;2023-04-25T06:23:26;9.33;;;7.93;;
3995;SDS011;2012;49.794;9.722;2023-04-25T06:26:02;14.30;;;9.43;;
3995;SDS011;2012;49.794;9.722;2023-04-25T06:28:31;9.70;;;8.10;;
3995;SDS011;2012;49.794;9.722;2023-04-25T06:30:58;10.00;;;7.93;;
3995;SDS011;2012;49.794;9.722;2023-04-25T06:33:26;13.10;;;7.80;;
3995;SDS011;2012;49.794;9.722;2023-04-25T06:35:53;10.40;;;8.90;;
3995;SDS011;2012;49.794;9.722;2023-04-25T06:38:24;12.67;;;8.20;;
3995;SDS011;2012;49.794;9.722;2023-04-25T06:40:52;13.20;;;8.40;;
3995;SDS011;2012;49.794;9.722;2023-04-25T06:43:19;13.73;;;7.27;;
3995;SDS011;2012;49.794;9.722;2023-04-25T06:46:03;11.27;;;8.03;;
3995;SDS011;2012;49.794;9.722;2023-04-25T06:48:34;15.80;;;8.43;;
3995;SDS011;2012;49.794;9.722;2023-04-25T06:51:01;13.10;;;7.50;;
3995;SDS011;2012;49.794;9.722;2023-04-25T06:53:28;15.70;;;7.70;;
3995;SDS011;2012;49.794;9.722;2023-04-25T06:55:59;19.03;;;7.73;;
3995;SDS011;2012;49.794;9.722;2023-04-25T06:58:36;13.03;;;7.10;;
3995;SDS011;2012;49.794;9.722;2023-04-25T07:01:14;12.67;;;6.87;;
3995;SDS011;2012;49.794;9.722;2023-04-25T07:03:41;15.80;;;7.80;;
3995;SDS011;2012;49.794;9.722;2023-04-25T07:06:13;11.37;;;4.80;;
3995;SDS011;2012;49.794;9.722;2023-04-25T07:08:41;10.60;;;6.07;;
3995;SDS011;2012;49.794;9.722;2023-04-25T07:11:07;9.47;;;5.80;;
3995;SDS011;2012;49.794;9.722;2023-04-25T07:13:35;11.57;;;5.57;;
3995;SDS011;2012;49.794;9.722;2023-04-25T07:16:03;10.40;;;5.23;;
3995;SDS011;2012;49.794;9.722;2023-04-25T07:18:32;17.37;;;5.00;;
3995;SDS011;2012;49.794;9.722;2023-04-25T07:20:59;10.70;;;5.07;;
3995;SDS011;2012;49.794;9.722;2023-04-25T07:23:27;15.80;;;5.10;;
3995;SDS011;2012;49.794;9.722;2023-04-25T07:25:57;8.00;;;5.40;;
3995;SDS011;2012;49.794;9.722;2023-04-25T07:28:25;11.93;;;4.90;;
3995;SDS011;2012;49.794;9.722;2023-04-25T07:30:52;5.80;;;4.10;;
3995;SDS011;2012;49.794;9.722;2023-04-25T07:33:19;10.23;;;4.40;;
3995;SDS011;2012;49.794;9.722;2023-04-25T07:35:46;7.93;;;4.00;;
3995;SDS011;2012;49.794;9.722;2023-04-25T07:38:13;14.00;;;4.20;;
3995;SDS011;2012;49.794;9.722;2023-04-25T07:40:41;8.37;;;4.53;;
3995;SDS011;2012;49.794;9.722;2023-04-25T07:43:10;9.37;;;3.93;;
3995;SDS011;2012;49.794;9.722;2023-04-25T07:45:47;7.87;;;3.77;;
3995;SDS011;2012;49.794;9.722;2023-04-25T07:48:17;9.37;;;3.83;;
3995;SDS011;2012;49.794;9.722;2023-04-25T07:50:50;7.40;;;3.90;;
3995;SDS011;2012;49.794;9.722;2023-04-25T07:53:17;5.73;;;3.63;;
3995;SDS011;2012;49.794;9.722;2023-04-25T07:55:50;3.13;;;2.73;;
3995;SDS011;2012;49.794;9.722;2023-04-25T07:58:19;11.20;;;3.27;;
3995;SDS011;2012;49.794;9.722;2023-04-25T08:00:52;6.93;;;2.43;;
3995;SDS011;2012;49.794;9.722;2023-04-25T08:03:34;3.77;;;2.77;;
3995;SDS011;2012;49.794;9.722;2023-04-25T08:06:04;5.43;;;2.83;;
3995;SDS011;2012;49.794;9.722;2023-04-25T08:08:41;5.67;;;2.90;;
3995;SDS011;2012;49.794;9.722;2023-04-25T08:11:11;7.57;;;2.87;;
3995;SDS011;2012;49.794;9.722;2023-04-25T08:13:39;7.27;;;3.17;;
3995;SDS011;2012;49.794;9.722;2023-04-25T08:16:06;6.67;;;2.83;;
3995;SDS011;2012;49.794;9.722;2023-04-25T08:18:33;5.63;;;2.37;;
3995;SDS011;2012;49.794;9.722;2023-04-25T08:21:01;7.50;;;2.90;;
3995;SDS011;2012;49.794;9.722;2023-04-25T08:23:29;10.47;;;2.80;;
3995;SDS011;2012;49.794;9.722;2023-04-25T08:26:22;3.27;;;2.50;;
3995;SDS011;2012;49.794;9.722;2023-04-25T08:28:49;15.33;;;2.83;;
3995;SDS011;2012;49.794;9.722;2023-04-25T08:31:17;4.27;;;2.00;;
3995;SDS011;2012;49.794;9.722;2023-04-25T08:33:53;5.07;;;2.50;;
3995;SDS011;2012;49.794;9.722;2023-04-25T08:36:40;4.13;;;2.10;;
3995;SDS011;2012;49.794;9.722;2023-04-25T08:39:33;3.80;;;2.10;;
3995;SDS011;2012;49.794;9.722;2023-04-25T08:42:24;3.83;;;2.13;;
3995;SDS011;2012;49.794;9.722;2023-04-25T08:44:53;7.17;;;2.20;;
3995;SDS011;2012;49.794;9.722;2023-04-25T08:47:25;4.80;;;1.80;;
3995;SDS011;2012;49.794;9.722;2023-04-25T08:49:56;4.40;;;2.20;;
3995;SDS011;2012;49.794;9.722;2023-04-25T08:52:23;5.80;;;2.67;;
3995;SDS011;2012;49.794;9.722;2023-04-25T08:54:52;2.70;;;2.00;;
3995;SDS011;2012;49.794;9.722;2023-04-25T08:57:20;3.37;;;2.20;;
3995;SDS011;2012;49.794;9.722;2023-04-25T08:59:48;6.97;;;2.40;;
3995;SDS011;2012;49.794;9.722;2023-04-25T09:02:16;5.73;;;2.30;;
3995;SDS011;2012;49.794;9.722;2023-04-25T09:04:48;6.60;;;1.90;;
3995;SDS011;2012;49.794;9.722;2023-04-25T09:07:16;9.20;;;2.97;;
3995;SDS011;2012;49.794;9.722;2023-04-25T09:09:47;5.83;;;2.03;;
3995;SDS011;2012;49.794;9.722;2023-04-25T09:12:18;5.40;;;2.60;;
3995;SDS011;2012;49.794;9.722;2023-04-25T09:15:00;3.20;;;2.37;;
3995;SDS011;2012;49.794;9.722;2023-04-25T09:18:03;6.80;;;2.23;;
3995;SDS011;2012;49.794;9.722;2023-04-25T09:20:40;5.97;;;2.63;;
3995;SDS011;2012;49.794;9.722;2023-04-25T09:23:26;6.50;;;2.23;;
3995;SDS011;2012;49.794;9.722;2023-04-25T09:25:53;4.53;;;2.40;;
3995;SDS011;2012;49.794;9.722;2023-04-25T09:28:24;2.40;;;2.00;;
3995;SDS011;2012;49.794;9.722;2023-04-25T09:30:57;3.60;;;2.00;;
3995;SDS011;2012;49.794;9.722;2023-04-25T09:33:40;2.33;;;1.90;;
3995;SDS011;2012;49.794;9.722;2023-04-25T09:36:08;4.00;;;2.23;;
3995;SDS011;2012;49.794;9.722;2023-04-25T09:39:03;8.23;;;2.53;;
3995;SDS011;2012;49.794;9.722;2023-04-25T09:41:46;4.80;;;2.27;;
3995;SDS011;2012;49.794;9.722;2023-04-25T09:44:13;3.00;;;2.47;;
3995;SDS011;2012;49.794;9.722;2023-04-25T09:46:42;8.73;;;2.40;;
3995;SDS011;2012;49.794;9.722;2023-04-25T09:49:17;6.00;;;2.40;;
3995;SDS011;2012;49.794;9.722;2023-04-25T09:51:56;4.20;;;1.80;;
3995;SDS011;2012;49.794;9.722;2023-04-25T09:54:29;2.60;;;1.90;;
3995;SDS011;2012;49.794;9.722;2023-04-25T09:57:23;3.50;;;1.97;;
3995;SDS011;2012;49.794;9.722;2023-04-25T09:59:53;5.33;;;2.30;;
3995;SDS011;2012;49.794;9.722;2023-04-25T10:02:23;7.80;;;2.53;;
3995;SDS011;2012;49.794;9.722;2023-04-25T10:04:55;3.50;;;2.33;;
3995;SDS011;2012;49.794;9.722;2023-04-25T10:07:31;4.30;;;2.87;;
3995;SDS011;2012;49.794;9.722;2023-04-25T10:10:02;3.03;;;1.93;;
3995;SDS011;2012;49.794;9.722;2023-04-25T10:12:32;3.87;;;2.30;;
3995;SDS011;2012;49.794;9.722;2023-04-25T10:15:00;3.47;;;2.43;;
3995;SDS011;2012;49.794;9.722;2023-04-25T10:17:31;2.37;;;2.10;;
3995;SDS011;2012;49.794;9.722;2023-04-25T10:20:00;3.33;;;2.30;;
3995;SDS011;2012;49.794;9.722;2023-04-25T10:22:38;4.10;;;2.70;;
3995;SDS011;2012;49.794;9.722;2023-04-25T10:25:08;4.93;;;2.60;;
3995;SDS011;2012;49.794;9.722;2023-04-25T10:27:36;4.00;;;1.73;;
3995;SDS011;2012;49.794;9.722;2023-04-25T10:30:03;3.40;;;1.80;;
3995;SDS011;2012;49.794;9.722;2023-04-25T10:32:39;8.03;;;2.07;;
3995;SDS011;2012;49.794;9.722;2023-04-25T10:35:15;3.00;;;2.60;;
3995;SDS011;2012;49.794;9.722;2023-04-25T10:38:03;3.20;;;1.97;;
3995;SDS011;2012;49.794;9.722;2023-04-25T10:40:31;2.53;;;2.20;;
3995;SDS011;2012;49.794;9.722;2023-04-25T10:45:58;2.27;;;1.83;;
3995;SDS011;2012;49.794;9.722;2023-04-25T10:48:26;3.30;;;2.27;;
3995;SDS011;2012;49.794;9.722;2023-04-25T10:51:09;6.70;;;2.80;;
3995;SDS011;2012;49.794;9.722;2023-04-25T10:53:47;4.37;;;2.30;;
3995;SDS011;2012;49.794;9.722;2023-04-25T10:56:33;3.63;;;2.17;;
3995;SDS011;2012;49.794;9.722;2023-04-25T10:59:16;2.97;;;2.33;;
3995;SDS011;2012;49.794;9.722;2023-04-25T11:01:53;2.40;;;2.17;;
3995;SDS011;2012;49.794;9.722;2023-04-25T11:09:56;3.27;;;1.63;;
3995;SDS011;2012;49.794;9.722;2023-04-25T11:12:24;2.03;;;1.90;;
3995;SDS011;2012;49.794;9.722;2023-04-25T11:14:57;5.07;;;3.00;;
3995;SDS011;2012;49.794;9.722;2023-04-25T11:17:25;7.73;;;2.37;;
3995;SDS011;2012;49.794;9.722;2023-04-25T11:19:52;2.33;;;2.00;;
3995;SDS011;2012;49.794;9.722;2023-04-25T11:22:20;14.53;;;2.20;;
3995;SDS011;2012;49.794;9.722;2023-04-25T11:24:48;7.20;;;2.47;;
3995;SDS011;2012;49.794;9.722;2023-04-25T11:27:14;6.13;;;2.20;;
3995;SDS011;2012;49.794;9.722;2023-04-25T11:29:41;10.33;;;2.50;;
3995;SDS011;2012;49.794;9.722;2023-04-25T11:32:08;5.93;;;2.37;;
3995;SDS011;2012;49.794;9.722;2023-04-25T11:34:35;3.50;;;2.40;;
3995;SDS011;2012;49.794;9.722;2023-04-25T11:37:02;7.50;;;2.63;;
3995;SDS011;2012;49.794;9.722;2023-04-25T11:39:29;3.70;;;2.73;;
3995;SDS011;2012;49.794;9.722;2023-04-25T11:41:56;9.30;;;2.43;;
3995;SDS011;2012;49.794;9.722;2023-04-25T11:44:24;4.97;;;2.47;;
3995;SDS011;2012;49.794;9.722;2023-04-25T11:46:51;4.33;;;2.47;;
3995;SDS011;2012;49.794;9.722;2023-04-25T11:49:18;2.70;;;2.50;;
3995;SDS011;2012;49.794;9.722;2023-04-25T11:51:46;3.30;;;2.60;;
3995;SDS011;2012;49.794;9.722;2023-04-25T11:54:14;3.73;;;2.13;;
3995;SDS011;2012;49.794;9.722;2023-04-25T11:56:45;5.00;;;2.93;;
3995;SDS011;2012;49.794;9.722;2023-04-25T11:59:12;5.30;;;2.27;;
3995;SDS011;2012;49.794;9.722;2023-04-25T12:01:40;3.53;;;2.70;;
3995;SDS011;2012;49.794;9.722;2023-04-25T12:04:14;6.83;;;2.47;;
3995;SDS011;2012;49.794;9.722;2023-04-25T12:06:43;7.00;;;3.40;;
3995;SDS011;2012;49.794;9.722;2023-04-25T12:09:12;5.33;;;2.63;;
3995;SDS011;2012;49.794;9.722;2023-04-25T12:11:42;9.17;;;3.43;;
3995;SDS011;2012;49.794;9.722;2023-04-25T12:14:23;4.20;;;2.53;;
3995;SDS011;2012;49.794;9.722;2023-04-25T12:16:55;6.77;;;3.63;;
3995;SDS011;2012;49.794;9.722;2023-04-25T12:19:24;4.10;;;2.80;;
3995;SDS011;2012;49.794;9.722;2023-04-25T12:21:52;5.37;;;2.90;;
3995;SDS011;2012;49.794;9.722;2023-04-25T12:24:24;5.97;;;2.70;;
3995;SDS011;2012;49.794;9.722;2023-04-25T12:27:03;6.60;;;3.63;;
3995;SDS011;2012;49.794;9.722;2023-04-25T12:29:32;5.20;;;3.00;;
3995;SDS011;2012;49.794;9.722;2023-04-25T12:32:15;4.90;;;3.00;;
3995;SDS011;2012;49.794;9.722;2023-04-25T12:34:42;4.63;;;2.60;;
3995;SDS011;2012;49.794;9.722;2023-04-25T12:37:09;3.40;;;2.27;;
3995;SDS011;2012;49.794;9.722;2023-04-25T12:39:37;5.13;;;4.23;;
3995;SDS011;2012;49.794;9.722;2023-04-25T12:42:04;8.50;;;3.60;;
3995;SDS011;2012;49.794;9.722;2023-04-25T12:44:35;7.90;;;3.77;;
3995;SDS011;2012;49.794;9.722;2023-04-25T12:47:02;5.33;;;3.43;;
3995;SDS011;2012;49.794;9.722;2023-04-25T12:49:29;6.63;;;3.20;;
3995;SDS011;2012;49.794;9.722;2023-04-25T12:51:56;16.93;;;4.73;;
3995;SDS011;2012;49.794;9.722;2023-04-25T12:54:23;14.77;;;4.60;;
3995;SDS011;2012;49.794;9.722;2023-04-25T12:56:51;10.30;;;4.00;;
3995;SDS011;2012;49.794;9.722;2023-04-25T12:59:18;7.50;;;4.30;;
3995;SDS011;2012;49.794;9.722;2023-04-25T13:01:46;16.40;;;5.10;;
3995;SDS011;2012;49.794;9.722;2023-04-25T13:04:13;11.07;;;3.20;;
3995;SDS011;2012;49.794;9.722;2023-04-25T13:06:41;8.30;;;5.70;;
3995;SDS011;2012;49.794;9.722;2023-04-25T13:09:08;9.07;;;4.27;;
3995;SDS011;2012;49.794;9.722;2023-04-25T13:11:35;8.50;;;4.47;;
3995;SDS011;2012;49.794;9.722;2023-04-25T13:14:02;3.67;;;3.20;;
3995;SDS011;2012;49.794;9.722;2023-04-25T13:16:29;6.37;;;4.13;;
3995;SDS011;2012;49.794;9.722;2023-04-25T13:18:56;10.17;;;4.93;;
3995;SDS011;2012;49.794;9.722;2023-04-25T13:21:24;5.30;;;4.03;;
3995;SDS011;2012;49.794;9.722;2023-04-25T13:23:51;7.70;;;3.27;;
3995;SDS011;2012;49.794;9.722;2023-04-25T13:26:19;5.70;;;3.60;;
3995;SDS011;2012;49.794;9.722;2023-04-25T13:28:46;6.23;;;3.53;;
3995;SDS011;2012;49.794;9.722;2023-04-25T13:31:12;7.60;;;3.50;;
3995;SDS011;2012;49.794;9.722;2023-04-25T13:33:39;4.03;;;2.83;;
3995;SDS011;2012;49.794;9.722;2023-04-25T13:36:06;4.63;;;2.97;;
3995;SDS011;2012;49.794;9.722;2023-04-25T13:38:33;3.27;;;2.63;;
3995;SDS011;2012;49.794;9.722;2023-04-25T13:41:00;8.30;;;3.03;;
3995;SDS011;2012;49.794;9.722;2023-04-25T13:43:27;6.10;;;2.63;;
3995;SDS011;2012;49.794;9.722;2023-04-25T13:45:54;6.10;;;2.67;;
3995;SDS011;2012;49.794;9.722;2023-04-25T13:48:20;3.97;;;2.60;;
3995;SDS011;2012;49.794;9.722;2023-04-25T13:50:49;2.83;;;2.23;;
3995;SDS011;2012;49.794;9.722;2023-04-25T13:53:16;4.10;;;2.33;;
3995;SDS011;2012;49.794;9.722;2023-04-25T13:55:43;3.37;;;2.30;;
3995;SDS011;2012;49.794;9.722;2023-04-25T13:58:10;5.03;;;2.90;;
3995;SDS011;2012;49.794;9.722;2023-04-25T14:00:37;5.83;;;2.50;;
3995;SDS011;2012;49.794;9.722;2023-04-25T14:03:05;3.70;;;2.50;;
3995;SDS011;2012;49.794;9.722;2023-04-25T14:05:36;4.00;;;3.10;;
3995;SDS011;2012;49.794;9.722;2023-04-25T14:08:07;2.97;;;1.90;;
3995;SDS011;2012;49.794;9.722;2023-04-25T14:10:34;3.77;;;2.40;;
3995;SDS011;2012;49.794;9.722;2023-04-25T14:13:02;3.80;;;1.87;;
3995;SDS011;2012;49.794;9.722;2023-04-25T14:15:31;5.70;;;2.83;;
3995;SDS011;2012;49.794;9.722;2023-04-25T14:17:58;3.33;;;1.87;;
3995;SDS011;2012;49.794;9.722;2023-04-25T14:20:26;4.77;;;2.30;;
3995;SDS011;2012;49.794;9.722;2023-04-25T14:22:53;5.27;;;2.43;;
3995;SDS011;2012;49.794;9.722;2023-04-25T14:25:22;4.87;;;2.23;;
3995;SDS011;2012;49.794;9.722;2023-04-25T14:27:49;3.77;;;2.03;;
3995;SDS011;2012;49.794;9.722;2023-04-25T14:30:17;3.03;;;1.93;;
3995;SDS011;2012;49.794;9.722;2023-04-25T14:32:46;3.90;;;2.30;;
3995;SDS011;2012;49.794;9.722;2023-04-25T14:35:13;7.83;;;2.50;;
3995;SDS011;2012;49.794;9.722;2023-04-25T14:37:41;6.40;;;2.27;;
3995;SDS011;2012;49.794;9.722;2023-04-25T14:40:07;8.23;;;2.67;;
3995;SDS011;2012;49.794;9.722;2023-04-25T14:42:37;4.93;;;2.00;;
3995;SDS011;2012;49.794;9.722;2023-04-25T14:45:04;14.67;;;2.97;;
3995;SDS011;2012;49.794;9.722;2023-04-25T14:47:33;3.87;;;2.27;;
3995;SDS011;2012;49.794;9.722;2023-04-25T14:50:01;3.17;;;2.00;;
3995;SDS011;2012;49.794;9.722;2023-04-25T14:52:28;5.07;;;2.23;;
3995;SDS011;2012;49.794;9.722;2023-04-25T14:54:55;4.57;;;2.00;;
3995;SDS011;2012;49.794;9.722;2023-04-25T14:57:21;7.50;;;2.20;;
3995;SDS011;2012;49.794;9.722;2023-04-25T14:59:48;4.63;;;1.77;;
3995;SDS011;2012;49.794;9.722;2023-04-25T15:02:15;6.73;;;2.70;;
3995;SDS011;2012;49.794;9.722;2023-04-25T15:04:42;6.60;;;2.00;;
3995;SDS011;2012;49.794;9.722;2023-04-25T15:07:09;10.27;;;2.70;;
3995;SDS011;2012;49.794;9.722;2023-04-25T15:09:36;7.97;;;2.20;;
3995;SDS011;2012;49.794;9.722;2023-04-25T15:12:03;4.47;;;2.60;;
3995;SDS011;2012;49.794;9.722;2023-04-25T15:14:30;5.13;;;2.03;;
3995;SDS011;2012;49.794;9.722;2023-04-25T15:16:57;6.40;;;1.63;;
3995;SDS011;2012;49.794;9.722;2023-04-25T15:19:24;9.17;;;2.20;;
3995;SDS011;2012;49.794;9.722;2023-04-25T15:21:50;4.90;;;2.00;;
3995;SDS011;2012;49.794;9.722;2023-04-25T15:24:17;7.03;;;2.43;;
3995;SDS011;2012;49.794;9.722;2023-04-25T15:26:44;4.13;;;1.90;;
3995;SDS011;2012;49.794;9.722;2023-04-25T15:29:12;4.03;;;2.70;;
3995;SDS011;2012;49.794;9.722;2023-04-25T15:31:39;3.70;;;2.23;;
3995;SDS011;2012;49.794;9.722;2023-04-25T15:34:06;9.03;;;3.53;;
3995;SDS011;2012;49.794;9.722;2023-04-25T15:36:33;13.73;;;6.27;;
3995;SDS011;2012;49.794;9.722;2023-04-25T15:38:59;55.37;;;24.27;;
3995;SDS011;2012;49.794;9.722;2023-04-25T15:41:26;43.63;;;22.93;;
3995;SDS011;2012;49.794;9.722;2023-04-25T15:43:54;54.53;;;28.13;;